createdAt,value
2023-05-19T00:02:09.444Z,81.33
2023-05-19T00:04:37.142Z,81.75
2023-05-19T00:07:04.017Z,81.60
2023-05-19T00:09:31.688Z,82.00
2023-05-19T00:11:58.720Z,82.24
2023-05-19T00:14:25.709Z,82.23
2023-05-19T00:16:52.926Z,82.47
2023-05-19T00:19:19.598Z,83.07
2023-05-19T00:21:46.478Z,82.84
2023-05-19T00:24:13.514Z,82.69
2023-05-19T00:26:40.209Z,82.59
2023-05-19T00:29:06.923Z,83.07
2023-05-19T00:31:34.269Z,83.04
2023-05-19T00:34:01.134Z,82.92
2023-05-19T00:36:27.780Z,83.43
2023-05-19T00:38:54.566Z,83.37
2023-05-19T00:41:21.466Z,83.75
2023-05-19T00:43:48.144Z,83.83
2023-05-19T00:46:14.948Z,83.66
2023-05-19T00:48:44.852Z,83.51
2023-05-19T00:51:14.647Z,83.76
2023-05-19T00:53:41.766Z,84.17
2023-05-19T00:56:08.438Z,83.75
2023-05-19T00:58:35.102Z,83.69
2023-05-19T01:01:04.204Z,83.90
2023-05-19T01:03:32.046Z,83.94
2023-05-19T01:06:01.767Z,83.90
2023-05-19T01:08:29.365Z,83.72
2023-05-19T01:10:56.052Z,83.95
2023-05-19T01:13:22.691Z,84.43
2023-05-19T01:16:09.134Z,83.92
2023-05-19T01:18:47.587Z,84.27
2023-05-19T01:21:52.760Z,84.13
2023-05-19T01:24:45.496Z,84.51
2023-05-19T01:27:31.066Z,84.90
2023-05-19T01:30:31.683Z,84.43
2023-05-19T01:33:00.884Z,84.93
2023-05-19T01:35:27.825Z,85.03
2023-05-19T01:37:56.424Z,84.93
2023-05-19T01:40:23.692Z,84.89
2023-05-19T01:42:51.660Z,84.98
2023-05-19T01:45:18.301Z,85.34
2023-05-19T01:47:47.287Z,85.02
2023-05-19T01:50:13.954Z,85.08
2023-05-19T01:52:40.626Z,84.60
2023-05-19T01:55:08.069Z,84.97
2023-05-19T01:57:43.562Z,84.76
2023-05-19T02:00:12.261Z,84.54
2023-05-19T02:03:08.348Z,84.61
2023-05-19T02:05:56.798Z,84.87
2023-05-19T02:08:43.441Z,84.91
2023-05-19T02:11:38.365Z,84.88
2023-05-19T02:14:16.112Z,85.27
2023-05-19T02:16:45.501Z,85.47
2023-05-19T02:19:41.463Z,85.06
2023-05-19T02:22:08.135Z,85.54
2023-05-19T02:24:34.872Z,85.44
2023-05-19T02:27:01.542Z,85.70
2023-05-19T02:29:28.493Z,85.29
2023-05-19T02:31:55.186Z,85.63
2023-05-19T02:34:22.137Z,84.99
2023-05-19T02:36:51.699Z,85.44
2023-05-19T02:39:18.419Z,85.19
2023-05-19T02:41:45.048Z,85.12
2023-05-19T02:44:11.756Z,85.24
2023-05-19T02:46:38.382Z,84.85
2023-05-19T02:49:05.120Z,85.40
2023-05-19T02:51:31.774Z,85.36
2023-05-19T02:53:58.449Z,85.49
2023-05-19T02:56:25.070Z,85.23
2023-05-19T02:58:52.749Z,85.45
2023-05-19T03:01:21.345Z,85.27
2023-05-19T03:03:48.117Z,85.58
2023-05-19T03:06:15.660Z,85.29
2023-05-19T03:08:42.514Z,85.56
2023-05-19T03:11:09.298Z,85.79
2023-05-19T03:13:35.982Z,85.29
2023-05-19T03:16:03.562Z,85.67
2023-05-19T03:18:30.674Z,85.07
2023-05-19T03:20:57.378Z,85.10
2023-05-19T03:23:23.997Z,85.54
2023-05-19T03:25:50.987Z,84.91
2023-05-19T03:28:17.666Z,85.36
2023-05-19T03:30:44.309Z,85.08
2023-05-19T03:33:11.257Z,84.90
2023-05-19T03:35:38.144Z,85.60
2023-05-19T03:38:04.869Z,85.05
2023-05-19T03:40:31.808Z,84.90
2023-05-19T03:42:58.756Z,84.97
2023-05-19T03:45:25.484Z,84.99
2023-05-19T03:47:52.210Z,84.97
2023-05-19T03:50:19.036Z,84.88
2023-05-19T03:52:47.556Z,84.52
2023-05-19T03:55:17.118Z,85.05
2023-05-19T03:57:44.482Z,84.86
2023-05-19T04:00:12.378Z,84.66
2023-05-19T04:02:39.380Z,84.08
2023-05-19T04:05:06.237Z,84.50
2023-05-19T04:07:33.234Z,84.23
2023-05-19T04:09:59.925Z,83.72
2023-05-19T04:12:26.586Z,83.52
2023-05-19T04:14:53.273Z,83.28
2023-05-19T04:17:19.953Z,83.71
2023-05-19T04:19:46.687Z,83.23
2023-05-19T04:22:13.413Z,83.60
2023-05-19T04:24:40.039Z,83.49
2023-05-19T04:27:12.159Z,83.76
2023-05-19T04:29:40.083Z,83.63
2023-05-19T04:32:07.814Z,83.98
2023-05-19T04:34:35.322Z,84.12
2023-05-19T04:37:02.754Z,83.46
2023-05-19T04:39:29.437Z,83.47
2023-05-19T04:41:56.870Z,83.61
2023-05-19T04:44:23.617Z,83.51
2023-05-19T04:46:54.394Z,83.56
2023-05-19T04:49:21.314Z,83.89
2023-05-19T04:51:50.401Z,83.21
2023-05-19T04:54:17.765Z,82.15
2023-05-19T04:56:44.467Z,81.67
2023-05-19T04:59:11.218Z,81.36
2023-05-19T05:01:40.914Z,80.61
2023-05-19T05:04:07.785Z,79.66
2023-05-19T05:06:34.461Z,78.20
2023-05-19T05:09:01.192Z,77.25
2023-05-19T05:11:28.197Z,74.94
2023-05-19T05:13:58.204Z,75.42
2023-05-19T05:16:26.126Z,75.23
2023-05-19T05:18:53.114Z,76.11
2023-05-19T05:21:20.032Z,76.06
2023-05-19T05:23:47.021Z,76.15
2023-05-19T05:26:20.255Z,76.56
2023-05-19T05:28:46.988Z,76.78
2023-05-19T05:31:13.691Z,77.48
2023-05-19T05:33:40.688Z,77.91
2023-05-19T05:36:07.786Z,77.20
2023-05-19T05:38:34.483Z,77.53
2023-05-19T05:41:02.705Z,77.27
2023-05-19T05:43:30.280Z,77.78
2023-05-19T05:45:57.477Z,77.53
2023-05-19T05:48:25.984Z,77.55
2023-05-19T05:50:52.856Z,77.04
2023-05-19T05:53:20.326Z,77.02
2023-05-19T05:55:47.792Z,77.37
2023-05-19T05:58:15.121Z,77.20
2023-05-19T06:00:45.464Z,76.87
2023-05-19T06:03:12.345Z,75.90
2023-05-19T06:05:39.385Z,75.57
2023-05-19T06:08:06.283Z,75.62
2023-05-19T06:10:33.418Z,76.20
2023-05-19T06:13:00.299Z,76.52
2023-05-19T06:15:27.026Z,76.23
2023-05-19T06:17:54.716Z,75.90
2023-05-19T06:20:21.960Z,75.73
2023-05-19T06:22:48.602Z,74.82
2023-05-19T06:25:15.231Z,75.26
2023-05-19T06:27:41.912Z,74.96
2023-05-19T06:30:09.366Z,75.50
2023-05-19T06:32:36.150Z,75.04
2023-05-19T06:35:02.977Z,73.92
2023-05-19T06:37:29.826Z,74.22
2023-05-19T06:39:56.561Z,73.19
2023-05-19T06:42:24.131Z,74.25
2023-05-19T06:44:51.431Z,73.83
2023-05-19T06:47:18.234Z,73.05
2023-05-19T06:49:45.223Z,73.19
2023-05-19T06:52:11.886Z,73.13
2023-05-19T06:54:38.643Z,72.78
2023-05-19T06:57:05.758Z,72.94
2023-05-19T06:59:32.505Z,73.18
2023-05-19T07:01:59.475Z,72.83
2023-05-19T07:04:26.332Z,72.98
2023-05-19T07:06:53.693Z,73.08
2023-05-19T07:09:32.756Z,73.67
2023-05-19T07:11:59.421Z,72.99
2023-05-19T07:14:26.114Z,73.64
2023-05-19T07:16:52.977Z,73.13
2023-05-19T07:19:20.015Z,72.73
2023-05-19T07:21:47.636Z,73.73
2023-05-19T07:24:14.337Z,73.86
2023-05-19T07:26:41.445Z,74.62
2023-05-19T07:29:08.172Z,74.09
2023-05-19T07:31:35.057Z,74.42
2023-05-19T07:34:03.175Z,74.23
2023-05-19T07:36:29.887Z,74.08
2023-05-19T07:38:56.640Z,74.00
2023-05-19T07:41:23.315Z,74.45
2023-05-19T07:43:50.282Z,74.38
2023-05-19T07:46:17.033Z,74.96
2023-05-19T07:48:44.013Z,75.46
2023-05-19T07:51:12.216Z,75.55
2023-05-19T07:53:39.988Z,74.64
2023-05-19T07:56:06.659Z,74.98
2023-05-19T07:58:33.548Z,75.72
2023-05-19T08:01:00.206Z,76.34
2023-05-19T08:03:27.394Z,77.12
2023-05-19T08:05:54.223Z,77.35
2023-05-19T08:08:22.059Z,77.32
2023-05-19T08:10:48.766Z,77.61
2023-05-19T08:13:15.459Z,77.50
2023-05-19T08:15:42.808Z,77.29
2023-05-19T08:18:09.674Z,76.85
2023-05-19T08:20:36.784Z,76.82
2023-05-19T08:23:05.411Z,77.34
2023-05-19T08:25:32.231Z,77.17
2023-05-19T08:27:58.915Z,76.77
2023-05-19T08:30:25.650Z,76.03
2023-05-19T08:32:52.370Z,76.23
2023-05-19T08:35:19.112Z,75.83
2023-05-19T08:37:46.079Z,76.17
2023-05-19T08:40:17.782Z,77.25
2023-05-19T08:42:47.874Z,76.51
2023-05-19T08:45:14.636Z,75.93
2023-05-19T08:47:41.594Z,76.22
2023-05-19T08:50:10.921Z,75.88
2023-05-19T08:52:52.980Z,75.85
2023-05-19T08:55:44.590Z,75.89
2023-05-19T08:58:11.444Z,76.56
2023-05-19T09:00:38.510Z,76.42
2023-05-19T09:03:17.468Z,76.73
2023-05-19T09:05:45.705Z,76.04
2023-05-19T09:08:12.514Z,76.56
2023-05-19T09:10:39.244Z,76.55
2023-05-19T09:13:06.470Z,76.37
2023-05-19T09:15:34.326Z,76.29
2023-05-19T09:18:14.205Z,76.24
2023-05-19T09:20:41.953Z,75.93
2023-05-19T09:23:13.779Z,75.44
2023-05-19T09:25:50.452Z,75.16
2023-05-19T09:28:25.382Z,75.00
2023-05-19T09:31:01.649Z,74.79
2023-05-19T09:33:28.878Z,74.50
2023-05-19T09:35:58.881Z,74.80
2023-05-19T09:38:27.013Z,74.86
2023-05-19T09:40:56.488Z,75.22
2023-05-19T09:43:23.291Z,74.71
2023-05-19T09:45:56.368Z,74.32
2023-05-19T09:48:23.073Z,73.92
2023-05-19T09:50:51.767Z,72.91
2023-05-19T09:53:18.721Z,73.34
2023-05-19T09:55:45.384Z,73.14
2023-05-19T09:58:16.998Z,73.42
2023-05-19T10:00:45.656Z,73.83
2023-05-19T10:03:12.358Z,73.45
2023-05-19T10:05:39.374Z,73.90
2023-05-19T10:08:07.359Z,72.43
2023-05-19T10:10:34.400Z,72.91
2023-05-19T10:13:01.382Z,72.43
2023-05-19T10:15:28.112Z,72.03
2023-05-19T10:17:54.946Z,72.43
2023-05-19T10:20:22.202Z,72.34
2023-05-19T10:22:48.989Z,71.51
2023-05-19T10:25:18.560Z,71.93
2023-05-19T10:28:07.900Z,72.11
2023-05-19T10:30:40.092Z,70.23
2023-05-19T10:33:08.177Z,69.13
2023-05-19T10:36:12.921Z,69.20
2023-05-19T10:38:45.899Z,68.77
2023-05-19T10:41:55.561Z,69.18
2023-05-19T10:44:31.410Z,68.48
2023-05-19T10:46:58.122Z,66.58
2023-05-19T10:49:24.839Z,67.40
2023-05-19T10:51:57.781Z,66.04
2023-05-19T10:54:41.554Z,66.24
2023-05-19T10:57:08.401Z,65.06
2023-05-19T10:59:37.301Z,64.32
2023-05-19T11:02:08.063Z,65.83
2023-05-19T11:04:54.236Z,63.41
2023-05-19T11:07:21.821Z,63.69
2023-05-19T11:09:52.098Z,64.03
2023-05-19T11:12:24.806Z,63.68
2023-05-19T11:14:55.056Z,64.13
2023-05-19T11:17:22.532Z,65.02
2023-05-19T11:19:56.140Z,63.23
2023-05-19T11:22:24.817Z,61.82
2023-05-19T11:24:53.407Z,62.79
2023-05-19T11:27:24.876Z,63.26
2023-05-19T11:29:51.907Z,63.24
2023-05-19T11:32:22.722Z,64.25
2023-05-19T11:34:50.089Z,63.77
2023-05-19T11:37:17.002Z,62.33
2023-05-19T11:39:45.268Z,60.75
2023-05-19T11:42:12.060Z,61.59
2023-05-19T11:44:38.852Z,61.69
2023-05-19T11:47:05.965Z,61.00
2023-05-19T11:49:32.739Z,60.49
2023-05-19T11:52:02.828Z,60.18
2023-05-19T11:54:33.680Z,61.08
2023-05-19T11:57:02.756Z,62.18
2023-05-19T11:59:36.425Z,59.72
2023-05-19T12:02:17.224Z,60.07
2023-05-19T12:04:44.016Z,59.21
2023-05-19T12:07:15.293Z,59.36
2023-05-19T12:09:41.956Z,60.30
2023-05-19T12:12:08.750Z,61.06
2023-05-19T12:14:36.008Z,60.03
2023-05-19T12:17:13.398Z,61.13
2023-05-19T12:19:41.494Z,60.46
2023-05-19T12:22:08.368Z,58.95
2023-05-19T12:24:35.767Z,58.46
2023-05-19T12:27:22.950Z,59.84
2023-05-19T12:29:54.053Z,61.67
2023-05-19T12:32:25.375Z,61.99
2023-05-19T12:34:52.809Z,61.89
2023-05-19T12:37:19.679Z,62.09
2023-05-19T12:39:46.432Z,61.32
2023-05-19T12:42:13.215Z,59.74
2023-05-19T12:44:46.918Z,58.86
2023-05-19T12:47:14.935Z,60.74
2023-05-19T12:50:00.904Z,61.50
2023-05-19T12:52:29.063Z,61.74
2023-05-19T12:55:06.696Z,60.28
2023-05-19T12:57:41.179Z,60.73
2023-05-19T13:00:14.003Z,61.53
2023-05-19T13:03:05.612Z,62.85
2023-05-19T13:05:39.513Z,62.64
2023-05-19T13:08:07.905Z,61.34
2023-05-19T13:10:35.649Z,60.94
2023-05-19T13:13:02.819Z,62.00
2023-05-19T13:15:32.203Z,62.29
2023-05-19T13:17:59.707Z,64.25
2023-05-19T13:20:28.370Z,64.22
2023-05-19T13:22:55.501Z,65.78
2023-05-19T13:25:22.328Z,66.29
2023-05-19T13:27:49.333Z,65.28
2023-05-19T13:30:16.372Z,65.06
2023-05-19T13:32:43.117Z,65.39
2023-05-19T13:35:09.978Z,65.40
2023-05-19T13:37:36.837Z,65.56
2023-05-19T13:40:03.800Z,64.54
2023-05-19T13:42:31.782Z,64.50
2023-05-19T13:44:58.416Z,63.08
2023-05-19T13:47:25.223Z,63.56
2023-05-19T13:49:51.966Z,63.74
2023-05-19T13:52:19.160Z,64.71
2023-05-19T13:54:45.820Z,62.80
2023-05-19T13:57:12.493Z,62.81
2023-05-19T13:59:52.910Z,63.58
2023-05-19T14:02:26.246Z,61.78
2023-05-19T14:04:52.948Z,62.27
2023-05-19T14:07:19.678Z,62.59
2023-05-19T14:09:46.386Z,63.36
2023-05-19T14:12:15.691Z,63.17
2023-05-19T14:14:42.654Z,63.50
2023-05-19T14:17:09.503Z,63.82
2023-05-19T14:19:36.208Z,62.34
2023-05-19T14:22:03.019Z,62.35
2023-05-19T14:24:29.759Z,63.12
2023-05-19T14:27:02.570Z,64.16
2023-05-19T14:29:31.167Z,63.81
2023-05-19T14:31:57.903Z,63.70
2023-05-19T14:34:25.119Z,63.67
2023-05-19T14:36:51.940Z,64.26
2023-05-19T14:39:18.569Z,62.68
2023-05-19T14:41:45.331Z,64.17
2023-05-19T14:44:12.073Z,63.32
2023-05-19T14:46:39.030Z,63.66
2023-05-19T14:49:06.737Z,63.80
2023-05-19T14:51:33.694Z,63.48
2023-05-19T14:54:02.119Z,63.62
2023-05-19T14:56:28.930Z,63.74
2023-05-19T14:58:55.612Z,63.90
2023-05-19T15:01:22.340Z,64.33
2023-05-19T15:03:49.137Z,63.85
2023-05-19T15:06:15.936Z,62.95
2023-05-19T15:08:42.722Z,64.17
2023-05-19T15:11:09.414Z,63.37
2023-05-19T15:13:36.087Z,64.18
2023-05-19T15:16:16.374Z,63.86
2023-05-19T15:18:44.682Z,64.60
2023-05-19T15:21:21.625Z,64.69
2023-05-19T15:23:48.467Z,64.58
2023-05-19T15:26:15.155Z,64.38
2023-05-19T15:28:41.999Z,64.26
2023-05-19T15:31:09.054Z,64.66
2023-05-19T15:33:36.283Z,64.41
2023-05-19T15:36:03.154Z,64.79
2023-05-19T15:38:30.644Z,64.99
2023-05-19T15:40:57.529Z,65.04
2023-05-19T15:43:24.237Z,65.04
2023-05-19T15:45:54.967Z,64.77
2023-05-19T15:48:21.704Z,63.75
2023-05-19T15:50:48.858Z,65.18
2023-05-19T15:53:15.541Z,65.14
2023-05-19T15:55:42.195Z,63.78
2023-05-19T15:58:08.966Z,64.30
2023-05-19T16:00:38.412Z,64.70
2023-05-19T16:03:05.160Z,64.79
2023-05-19T16:05:31.897Z,63.99
2023-05-19T16:07:58.820Z,64.34
2023-05-19T16:10:25.523Z,64.86
2023-05-19T16:12:52.220Z,65.71
2023-05-19T16:15:19.111Z,65.96
2023-05-19T16:17:45.859Z,66.43
2023-05-19T16:20:12.783Z,65.78
2023-05-19T16:22:39.459Z,66.49
2023-05-19T16:25:06.967Z,66.35
2023-05-19T16:27:33.763Z,66.96
2023-05-19T16:30:01.251Z,65.92
2023-05-19T16:32:27.996Z,66.57
2023-05-19T16:34:54.680Z,67.09
2023-05-19T16:37:21.347Z,67.51
2023-05-19T16:39:48.462Z,67.71
2023-05-19T16:42:15.139Z,67.99
2023-05-19T16:44:42.738Z,68.73
2023-05-19T16:47:09.552Z,68.98
2023-05-19T16:49:36.205Z,69.30
2023-05-19T16:52:02.896Z,69.79
2023-05-19T16:54:29.597Z,69.51
2023-05-19T16:56:56.288Z,70.17
2023-05-19T16:59:22.928Z,69.52
2023-05-19T17:01:50.041Z,69.68
2023-05-19T17:04:16.760Z,70.22
2023-05-19T17:06:43.634Z,70.31
2023-05-19T17:09:10.276Z,70.68
2023-05-19T17:11:36.924Z,70.86
2023-05-19T17:14:07.748Z,71.07
2023-05-19T17:16:35.782Z,71.24
2023-05-19T17:19:02.960Z,71.91
2023-05-19T17:21:29.891Z,72.13
2023-05-19T17:23:56.969Z,72.52
2023-05-19T17:26:23.663Z,71.98
2023-05-19T17:28:50.404Z,72.67
2023-05-19T17:31:17.176Z,72.90
2023-05-19T17:33:43.906Z,73.07
2023-05-19T17:36:10.865Z,73.51
2023-05-19T17:38:40.559Z,73.14
2023-05-19T17:41:10.342Z,73.81
2023-05-19T17:43:37.817Z,73.92
2023-05-19T17:46:04.886Z,74.14
2023-05-19T17:48:31.674Z,74.30
2023-05-19T17:50:58.628Z,74.52
2023-05-19T17:53:26.023Z,75.11
2023-05-19T17:55:53.821Z,74.90
2023-05-19T17:58:21.002Z,75.19
2023-05-19T18:00:47.931Z,75.14
2023-05-19T18:03:15.037Z,75.43
2023-05-19T18:05:43.340Z,75.84
2023-05-19T18:08:10.813Z,75.75
2023-05-19T18:10:38.356Z,75.69
2023-05-19T18:13:05.645Z,76.03
2023-05-19T18:15:32.318Z,76.16
2023-05-19T18:17:59.217Z,76.36
2023-05-19T18:20:26.113Z,76.64
2023-05-19T18:22:52.841Z,76.49
2023-05-19T18:25:20.890Z,77.52
2023-05-19T18:27:47.625Z,76.97
2023-05-19T18:30:14.506Z,77.33
2023-05-19T18:32:41.249Z,77.31
2023-05-19T18:35:08.842Z,77.67
2023-05-19T18:37:35.754Z,77.89
2023-05-19T18:40:02.499Z,78.09
2023-05-19T18:42:29.229Z,79.15
2023-05-19T18:44:56.007Z,78.73
2023-05-19T18:47:23.154Z,78.75
2023-05-19T18:49:50.249Z,79.37
2023-05-19T18:52:17.147Z,79.78
2023-05-19T18:54:45.953Z,79.73
2023-05-19T18:57:12.912Z,79.93
2023-05-19T18:59:39.567Z,80.44
2023-05-19T19:02:06.738Z,80.74
2023-05-19T19:04:33.666Z,81.17
2023-05-19T19:07:14.752Z,80.72
2023-05-19T19:09:43.712Z,81.10
2023-05-19T19:12:10.924Z,80.67
2023-05-19T19:14:37.759Z,80.84
2023-05-19T19:17:04.587Z,81.15
2023-05-19T19:19:31.501Z,81.80
2023-05-19T19:21:58.346Z,82.26
2023-05-19T19:24:26.679Z,82.08
2023-05-19T19:26:53.365Z,81.95
2023-05-19T19:29:21.919Z,82.22
2023-05-19T19:31:49.024Z,82.32
2023-05-19T19:34:15.991Z,82.16
2023-05-19T19:36:42.703Z,82.56
2023-05-19T19:39:09.515Z,82.62
2023-05-19T19:41:36.723Z,82.86
2023-05-19T19:44:03.650Z,82.42
2023-05-19T19:46:30.411Z,82.93
2023-05-19T19:49:00.354Z,82.58
2023-05-19T19:51:27.825Z,82.85
2023-05-19T19:53:54.600Z,82.99
2023-05-19T19:56:23.652Z,83.14
2023-05-19T19:58:50.857Z,83.34
2023-05-19T20:01:20.362Z,83.18
2023-05-19T20:03:47.471Z,83.55
2023-05-19T20:06:14.448Z,83.53
2023-05-19T20:08:41.467Z,83.43
2023-05-19T20:11:08.125Z,83.26
2023-05-19T20:13:34.858Z,83.45
2023-05-19T20:16:01.571Z,83.48
2023-05-19T20:18:29.790Z,84.12
2023-05-19T20:20:56.938Z,83.78
2023-05-19T20:23:23.644Z,83.62
2023-05-19T20:26:10.084Z,83.75
2023-05-19T20:28:37.785Z,83.92
2023-05-19T20:31:05.162Z,84.15
2023-05-19T20:33:32.085Z,84.20
2023-05-19T20:35:58.781Z,84.24
2023-05-19T20:38:25.538Z,84.16
2023-05-19T20:40:52.707Z,84.04
2023-05-19T20:43:19.424Z,84.08
2023-05-19T20:45:46.482Z,83.63
2023-05-19T20:48:13.427Z,83.82
2023-05-19T20:50:40.218Z,83.88
2023-05-19T20:53:07.505Z,84.01
2023-05-19T20:55:36.255Z,83.59
2023-05-19T20:58:03.155Z,83.64
2023-05-19T21:00:30.679Z,83.60
2023-05-19T21:02:57.731Z,83.75
2023-05-19T21:05:24.728Z,83.38
2023-05-19T21:07:51.497Z,83.88
2023-05-19T21:10:18.604Z,83.38
2023-05-19T21:12:46.597Z,83.27
2023-05-19T21:15:13.596Z,83.48
2023-05-19T21:21:26.880Z,83.32
2023-05-19T21:27:40.962Z,83.55
2023-05-19T21:30:10.638Z,83.58
2023-05-19T21:32:37.288Z,84.02
2023-05-19T21:35:04.750Z,83.99
2023-05-19T21:37:31.496Z,83.97
2023-05-19T21:39:58.452Z,84.22
2023-05-19T21:42:25.160Z,83.77
2023-05-19T21:44:51.893Z,83.97
2023-05-19T21:47:18.549Z,84.19
2023-05-19T21:49:45.338Z,84.03
2023-05-19T21:52:12.033Z,84.21
2023-05-19T21:54:38.749Z,83.95
2023-05-19T21:57:05.747Z,84.06
2023-05-19T21:59:32.405Z,84.00
2023-05-19T22:01:59.263Z,84.42
2023-05-19T22:04:26.855Z,84.00
2023-05-19T22:06:53.509Z,84.24
2023-05-19T22:09:20.186Z,84.24
2023-05-19T22:11:46.884Z,84.14
2023-05-19T22:14:13.928Z,84.51
2023-05-19T22:16:41.142Z,84.47
2023-05-19T22:19:08.375Z,84.49
2023-05-19T22:21:35.106Z,83.95
2023-05-19T22:24:01.734Z,84.41
2023-05-19T22:26:28.471Z,84.34
2023-05-19T22:28:55.584Z,84.02
2023-05-19T22:31:22.410Z,84.17
2023-05-19T22:33:49.108Z,84.34
2023-05-19T22:36:16.307Z,84.33
2023-05-19T22:38:42.992Z,84.61
2023-05-19T22:41:09.615Z,84.24
2023-05-19T22:43:36.368Z,84.23
2023-05-19T22:46:03.032Z,84.59
2023-05-19T22:48:29.700Z,84.10
2023-05-19T22:50:56.365Z,84.35
2023-05-19T22:53:23.046Z,84.81
2023-05-19T22:55:49.688Z,84.64
2023-05-19T22:58:16.372Z,84.02
2023-05-19T23:00:43.018Z,84.34
2023-05-19T23:03:09.826Z,84.28
2023-05-19T23:05:36.590Z,84.17
2023-05-19T23:08:03.262Z,84.05
2023-05-19T23:10:30.274Z,84.12
2023-05-19T23:12:56.967Z,84.16
2023-05-19T23:15:23.820Z,84.50
2023-05-19T23:17:50.589Z,84.26
2023-05-19T23:20:17.337Z,84.02
2023-05-19T23:22:44.009Z,84.31
2023-05-19T23:25:11.329Z,83.90
2023-05-19T23:27:38.019Z,84.09
2023-05-19T23:30:05.178Z,84.10
2023-05-19T23:32:32.184Z,83.79
2023-05-19T23:35:09.295Z,84.24
2023-05-19T23:37:36.015Z,83.80
2023-05-19T23:40:02.851Z,84.00
2023-05-19T23:42:29.537Z,84.08
2023-05-19T23:44:56.212Z,84.28
2023-05-19T23:47:22.881Z,83.71
2023-05-19T23:49:49.677Z,84.11
2023-05-19T23:52:16.413Z,83.67
2023-05-19T23:54:43.064Z,83.76
2023-05-19T23:57:09.724Z,83.63
2023-05-19T23:59:36.489Z,83.95
